Time;durP1;ratioP1;P1;durP2;ratioP2;P2;SDS_P1;SDS_P2;PMS_P1;PMS_P2;Temp;Humidity;BMP_temperature;BMP_pressure;BME280_temperature;BME280_humidity;BME280_pressure;Samples;Min_cycle;Max_cycle;Signal;HPM_P1;HPM_P2
2021/12/03 00:00:47;;;;;;;1.73;1.13;;;-2.40;99.90;-3.00;99619.00;;;;4996400;28;98982;-65
2021/12/03 00:03:13;;;;;;;14.97;2.00;;;-2.50;99.90;-3.00;99627.00;;;;4997185;27;87841;-67
2021/12/03 00:05:39;;;;;;;2.57;2.00;;;-2.50;99.90;-3.00;99635.00;;;;5011359;27;89707;-66
2021/12/03 00:08:06;;;;;;;1.77;1.57;;;-2.50;99.90;-3.00;99643.00;;;;5015948;27;89301;-65
2021/12/03 00:10:32;;;;;;;1.77;1.63;;;-2.10;99.90;-3.00;99643.00;;;;5015512;27;87716;-66
2021/12/03 00:12:58;;;;;;;6.60;2.33;;;-2.60;99.90;-2.90;99648.00;;;;5016535;27;87828;-66
2021/12/03 00:15:25;;;;;;;5.43;2.60;;;-2.50;99.90;-3.00;99646.00;;;;5013971;27;87920;-66
2021/12/03 00:17:52;;;;;;;5.93;2.53;;;-2.50;99.90;-3.00;99647.00;;;;5015945;27;88797;-65
2021/12/03 00:20:19;;;;;;;2.53;2.03;;;-2.50;99.90;-3.00;99657.00;;;;5016418;27;87729;-66
2021/12/03 00:22:50;;;;;;;3.93;1.80;;;-2.60;99.90;-3.00;99672.00;;;;5017072;27;87200;-66
2021/12/03 00:25:17;;;;;;;3.50;2.10;;;-2.50;99.90;-3.10;99661.00;;;;5015820;27;93250;-68
2021/12/03 00:27:43;;;;;;;2.13;1.73;;;-1.90;99.90;-3.10;99668.00;;;;5016291;27;87990;-66
2021/12/03 00:30:12;;;;;;;3.10;2.33;;;-2.60;99.90;-3.10;99672.00;;;;5015111;27;88747;-66
2021/12/03 00:32:39;;;;;;;3.20;1.90;;;-2.60;99.90;-3.10;99676.00;;;;5005983;27;87732;-67
2021/12/03 00:35:09;;;;;;;2.10;1.70;;;-2.60;99.90;-3.20;99684.00;;;;4993653;27;90400;-66
2021/12/03 00:37:35;;;;;;;1.97;1.83;;;-2.70;99.90;-3.20;99687.00;;;;4995937;28;88537;-67
2021/12/03 00:40:01;;;;;;;2.40;1.80;;;-2.80;99.90;-3.20;99687.00;;;;4995889;27;87836;-67
2021/12/03 00:42:28;;;;;;;3.97;1.83;;;-1.90;99.90;-3.20;99696.00;;;;4995290;28;87799;-68
2021/12/03 00:44:55;;;;;;;2.93;1.60;;;-2.60;99.90;-3.20;99706.00;;;;4995512;28;88688;-67
2021/12/03 00:47:23;;;;;;;3.17;1.77;;;-2.70;99.90;-3.20;99709.00;;;;4995246;28;89525;-67
2021/12/03 00:49:49;;;;;;;2.47;1.63;;;-2.80;99.90;-3.20;99704.00;;;;4995615;28;87814;-67
2021/12/03 00:52:15;;;;;;;4.40;1.90;;;-2.70;99.90;-3.20;99714.00;;;;4996421;27;87827;-67
2021/12/03 00:54:41;;;;;;;5.73;2.20;;;-2.80;99.90;-3.20;99711.00;;;;4994931;28;101706;-67
2021/12/03 00:57:07;;;;;;;5.17;2.10;;;-2.80;99.90;-3.20;99715.00;;;;4995501;28;90158;-66
2021/12/03 00:59:34;;;;;;;3.53;1.83;;;-2.80;99.90;-3.20;99732.00;;;;4998112;27;87632;-66
2021/12/03 01:02:00;;;;;;;3.03;1.80;;;-2.80;99.90;-3.20;99721.00;;;;5015867;27;87630;-66
2021/12/03 01:04:26;;;;;;;2.40;2.07;;;-2.80;99.90;-3.20;99726.00;;;;5015976;27;89197;-68
2021/12/03 01:06:52;;;;;;;1.33;1.23;;;-2.90;99.90;-3.20;99724.00;;;;5014833;27;94373;-66
2021/12/03 01:09:18;;;;;;;7.53;2.03;;;-2.70;99.90;-3.20;99723.00;;;;5015255;27;104295;-66
2021/12/03 01:11:44;;;;;;;1.70;1.50;;;-2.70;99.90;-3.10;99724.00;;;;5016436;27;87127;-66
2021/12/03 01:14:10;;;;;;;12.20;1.80;;;-2.70;99.90;-3.10;99737.00;;;;5015380;27;90116;-67
2021/12/03 01:16:36;;;;;;;3.10;2.20;;;-2.70;99.90;-3.10;99736.00;;;;5014929;27;106133;-66
2021/12/03 01:19:03;;;;;;;2.03;1.40;;;-2.70;99.90;-3.10;99736.00;;;;5014573;27;88615;-67
2021/12/03 01:21:28;;;;;;;3.27;2.63;;;-2.70;99.90;-3.00;99737.00;;;;5004051;27;87840;-67
2021/12/03 01:23:55;;;;;;;3.30;2.07;;;-2.70;99.90;-3.00;99740.00;;;;4994819;28;106137;-66
2021/12/03 01:26:21;;;;;;;1.80;1.57;;;-2.60;99.90;-3.00;99730.00;;;;4994839;28;98305;-67
2021/12/03 01:28:48;;;;;;;3.33;2.07;;;-2.60;99.90;-3.00;99729.00;;;;4995490;28;88055;-67
2021/12/03 01:31:15;;;;;;;3.10;2.33;;;-2.60;99.90;-3.00;99729.00;;;;4995363;28;87946;-66
2021/12/03 01:33:42;;;;;;;3.03;1.90;;;-2.60;99.90;-3.00;99727.00;;;;4995022;28;89275;-65
2021/12/03 01:36:08;;;;;;;3.50;1.70;;;-2.40;99.90;-3.10;99738.00;;;;4995554;28;88522;-67
2021/12/03 01:38:34;;;;;;;2.50;1.83;;;-2.60;99.90;-3.10;99730.00;;;;4994628;27;88678;-68
2021/12/03 01:41:01;;;;;;;5.97;2.53;;;-2.70;99.90;-3.10;99744.00;;;;4995134;28;87799;-68
2021/12/03 01:43:27;;;;;;;3.77;1.73;;;-2.70;99.90;-3.10;99729.00;;;;4996740;28;89114;-67
2021/12/03 01:45:58;;;;;;;1.43;1.33;;;-2.80;99.90;-3.20;99741.00;;;;4998082;28;88085;-67
2021/12/03 01:48:26;;;;;;;1.77;1.20;;;-2.70;99.90;-3.20;99723.00;;;;5002788;27;87583;-66
2021/12/03 01:51:11;;;;;;;2.27;2.07;;;-2.70;99.90;-3.20;99726.00;;;;5018736;27;87735;-67
2021/12/03 01:53:39;;;;;;;2.17;1.97;;;-2.70;99.90;-3.20;99742.00;;;;4998145;28;88525;-68
2021/12/03 01:56:11;;;;;;;1.80;1.43;;;-2.80;99.90;-3.20;99729.00;;;;4998449;28;88092;-67
2021/12/03 01:58:39;;;;;;;3.07;2.00;;;-2.80;99.90;-3.20;99728.00;;;;4997606;27;87746;-67
2021/12/03 02:01:10;;;;;;;1.43;1.33;;;-3.00;99.90;-3.20;99741.00;;;;4997052;28;87093;-67
2021/12/03 02:03:38;;;;;;;3.17;1.57;;;-2.80;99.90;-3.20;99744.00;;;;4997742;28;89444;-67
2021/12/03 02:06:07;;;;;;;1.73;1.63;;;-2.70;99.90;-3.30;99731.00;;;;4998426;27;87924;-67
2021/12/03 02:08:33;;;;;;;2.93;2.63;;;-2.80;99.90;-3.30;99727.00;;;;4999496;27;99351;-68
2021/12/03 02:10:59;;;;;;;3.00;1.80;;;-2.80;99.90;-3.30;99724.00;;;;5018424;27;87812;-67
2021/12/03 02:13:25;;;;;;;3.13;2.20;;;-2.80;99.90;-3.30;99726.00;;;;5016453;27;88687;-69
2021/12/03 02:15:51;;;;;;;3.30;2.97;;;-2.90;99.90;-3.30;99731.00;;;;5016388;27;89138;-68
2021/12/03 02:18:18;;;;;;;4.93;2.23;;;-2.90;99.90;-3.40;99725.00;;;;4998132;28;87734;-68
2021/12/03 02:20:49;;;;;;;8.00;2.63;;;-2.80;99.90;-3.40;99729.00;;;;4998337;28;87550;-69
2021/12/03 02:23:16;;;;;;;4.17;2.33;;;-2.90;99.90;-3.40;99732.00;;;;4997812;27;89244;-68
2021/12/03 02:25:43;;;;;;;5.00;2.63;;;-2.90;99.90;-3.40;99731.00;;;;4998098;28;87840;-67
2021/12/03 02:28:09;;;;;;;2.50;2.20;;;-3.00;99.90;-3.40;99730.00;;;;4998153;28;87756;-68
2021/12/03 02:30:36;;;;;;;3.43;2.17;;;-2.90;99.90;-3.40;99739.00;;;;4997538;28;90470;-67
2021/12/03 02:33:02;;;;;;;5.37;3.00;;;-3.00;99.90;-3.40;99748.00;;;;4996766;28;89870;-67
2021/12/03 02:35:29;;;;;;;3.17;2.80;;;-3.10;99.90;-3.40;99748.00;;;;4997994;28;95196;-67
2021/12/03 02:37:55;;;;;;;6.13;3.10;;;-2.30;99.90;-3.40;99756.00;;;;4996071;27;87990;-66
2021/12/03 02:40:23;;;;;;;2.37;2.03;;;-2.90;99.90;-3.40;99747.00;;;;4997912;28;87816;-68
2021/12/03 02:42:50;;;;;;;8.17;3.57;;;-2.90;99.90;-3.40;99753.00;;;;4997154;28;88114;-68
2021/12/03 02:45:17;;;;;;;4.50;3.20;;;-2.40;99.90;-3.30;99753.00;;;;5012665;27;87996;-68
2021/12/03 02:47:43;;;;;;;3.37;2.73;;;-2.90;99.90;-3.30;99752.00;;;;5017500;27;87948;-67
2021/12/03 02:50:11;;;;;;;3.37;2.53;;;-1.80;99.90;-3.30;99758.00;;;;5015788;27;87088;-68
2021/12/03 02:52:36;;;;;;;6.77;2.07;;;-2.90;99.90;-3.30;99753.00;;;;5017363;27;87727;-66
2021/12/03 02:55:04;;;;;;;3.80;2.87;;;-2.80;99.90;-3.20;99750.00;;;;5016962;27;88935;-66
2021/12/03 02:57:30;;;;;;;3.43;2.80;;;-2.90;99.90;-3.20;99758.00;;;;5015527;27;88921;-68
2021/12/03 02:59:56;;;;;;;6.17;3.50;;;-2.80;99.90;-3.10;99745.00;;;;5017261;27;87683;-67
2021/12/03 03:02:22;;;;;;;2.63;2.43;;;-2.70;99.90;-3.10;99753.00;;;;5016798;27;89154;-67
2021/12/03 03:04:48;;;;;;;2.67;2.13;;;-2.10;99.90;-3.10;99751.00;;;;5017687;27;88938;-69
2021/12/03 03:07:13;;;;;;;3.43;2.87;;;-1.90;99.90;-3.10;99752.00;;;;5017110;27;88003;-67
2021/12/03 03:09:43;;;;;;;3.07;2.77;;;-2.70;99.90;-3.10;99759.00;;;;5016638;27;87843;-68
2021/12/03 03:12:10;;;;;;;4.00;3.20;;;-2.60;99.90;-3.10;99759.00;;;;5009510;27;87685;-67
2021/12/03 03:14:43;;;;;;;4.50;2.97;;;-2.70;99.90;-3.10;99763.00;;;;4997549;27;96207;-68
2021/12/03 03:17:09;;;;;;;4.03;3.00;;;-2.60;99.90;-3.10;99752.00;;;;4997163;27;87994;-67
2021/12/03 03:19:34;;;;;;;4.67;2.83;;;-2.70;99.90;-3.20;99770.00;;;;4996567;28;89825;-70
2021/12/03 03:22:00;;;;;;;3.80;2.30;;;-2.70;99.90;-3.20;99760.00;;;;4995046;28;119217;-68
2021/12/03 03:24:26;;;;;;;3.03;2.53;;;-2.70;99.90;-3.20;99769.00;;;;4996568;28;117817;-68
2021/12/03 03:26:52;;;;;;;4.67;3.50;;;-2.20;99.90;-3.20;99767.00;;;;4993343;27;111511;-68
2021/12/03 03:29:18;;;;;;;5.40;3.40;;;-2.70;99.90;-3.30;99757.00;;;;4996724;28;87679;-67
2021/12/03 03:31:44;;;;;;;3.33;2.93;;;-2.80;99.90;-3.30;99764.00;;;;4996843;28;89079;-67
2021/12/03 03:34:10;;;;;;;5.30;3.03;;;-2.00;99.90;-3.40;99767.00;;;;4996862;28;87783;-67
2021/12/03 03:36:42;;;;;;;3.27;2.27;;;-2.80;99.90;-3.40;99774.00;;;;4996554;28;97982;-68
2021/12/03 03:39:11;;;;;;;2.43;2.23;;;-2.40;99.90;-3.40;99767.00;;;;5012232;27;87518;-68
2021/12/03 03:41:38;;;;;;;3.90;2.63;;;-3.00;99.90;-3.50;99779.00;;;;5014958;27;87606;-68
2021/12/03 03:44:04;;;;;;;3.17;2.77;;;-3.00;99.90;-3.50;99786.00;;;;5014488;27;87989;-68
2021/12/03 03:46:31;;;;;;;3.33;2.70;;;-3.00;99.90;-3.50;99776.00;;;;5014140;27;88684;-68
2021/12/03 03:48:57;;;;;;;4.23;2.67;;;-3.20;99.90;-3.60;99771.00;;;;4996774;27;87806;-67
2021/12/03 03:51:23;;;;;;;4.10;2.67;;;-2.30;99.90;-3.60;99757.00;;;;4995804;28;88589;-68
2021/12/03 03:53:49;;;;;;;7.90;3.53;;;-2.40;99.90;-3.60;99755.00;;;;4995566;28;88460;-68
2021/12/03 03:56:15;;;;;;;7.90;4.30;;;-3.10;99.90;-3.70;99768.00;;;;4996359;27;87877;-68
2021/12/03 03:58:41;;;;;;;3.40;3.07;;;-3.20;99.90;-3.60;99758.00;;;;4997078;28;87568;-68
2021/12/03 04:01:12;;;;;;;4.23;2.57;;;-2.40;99.90;-3.60;99761.00;;;;4996250;27;88027;-67
2021/12/03 04:03:38;;;;;;;5.10;3.07;;;-3.20;99.90;-3.60;99759.00;;;;4996423;28;101780;-67
2021/12/03 04:06:04;;;;;;;5.30;3.00;;;-3.20;99.90;-3.50;99758.00;;;;4995819;27;87927;-67
2021/12/03 04:08:30;;;;;;;5.73;3.77;;;-3.10;99.90;-3.50;99774.00;;;;4996688;28;87761;-67
2021/12/03 04:11:00;;;;;;;6.63;2.90;;;-3.00;99.90;-3.50;99763.00;;;;4995437;28;89257;-68
2021/12/03 04:13:27;;;;;;;3.23;2.93;;;-3.00;99.90;-3.40;99775.00;;;;4996024;28;89405;-65
2021/12/03 04:15:53;;;;;;;4.77;3.90;;;-3.00;99.90;-3.30;99775.00;;;;4996073;27;88151;-66
2021/12/03 04:18:19;;;;;;;8.57;4.67;;;-3.00;99.90;-3.30;99775.00;;;;5016025;27;87657;-67
2021/12/03 04:20:46;;;;;;;3.00;2.73;;;-2.90;99.90;-3.20;99787.00;;;;5015782;27;88903;-68
2021/12/03 04:23:17;;;;;;;5.77;2.90;;;-2.90;99.90;-3.20;99790.00;;;;5014756;27;95256;-67
2021/12/03 04:25:43;;;;;;;6.03;3.63;;;-2.80;99.90;-3.20;99772.00;;;;5016693;27;87988;-66
2021/12/03 04:28:09;;;;;;;6.40;3.63;;;-1.80;99.90;-3.20;99772.00;;;;5016748;27;87064;-68
2021/12/03 04:30:35;;;;;;;5.47;3.30;;;-2.70;99.90;-3.10;99773.00;;;;5015001;27;106513;-67
2021/12/03 04:33:02;;;;;;;6.50;4.47;;;-2.80;99.90;-3.10;99768.00;;;;5014197;27;88801;-67
2021/12/03 04:35:28;;;;;;;5.23;3.60;;;-2.70;99.90;-3.00;99776.00;;;;5015813;27;88628;-67
2021/12/03 04:37:55;;;;;;;4.67;3.20;;;-2.60;99.90;-3.00;99780.00;;;;5016299;27;88008;-67
2021/12/03 04:40:22;;;;;;;5.60;3.67;;;-2.40;99.90;-2.90;99792.00;;;;5015402;27;88276;-66
2021/12/03 04:42:49;;;;;;;3.83;3.30;;;-2.50;99.90;-2.90;99781.00;;;;5015383;27;110634;-66
2021/12/03 04:45:19;;;;;;;3.80;3.50;;;-1.60;99.90;-2.90;99788.00;;;;5016167;27;88244;-66
2021/12/03 04:47:47;;;;;;;7.37;3.77;;;-2.50;99.90;-2.80;99780.00;;;;5016166;27;87818;-68
2021/12/03 04:50:14;;;;;;;6.97;4.23;;;-2.50;99.90;-2.80;99794.00;;;;5015873;27;87803;-66
2021/12/03 04:52:40;;;;;;;7.83;4.20;;;-2.40;99.90;-2.80;99801.00;;;;5016624;27;87274;-66
2021/12/03 04:55:08;;;;;;;4.80;3.70;;;-2.40;99.90;-2.80;99807.00;;;;5015964;27;87955;-67
2021/12/03 04:57:35;;;;;;;5.60;4.33;;;-2.30;99.90;-2.80;99796.00;;;;5002983;27;87588;-66
2021/12/03 05:00:03;;;;;;;7.67;4.70;;;-2.40;99.90;-2.70;99821.00;;;;5001828;27;89197;-67
2021/12/03 05:02:29;;;;;;;10.40;4.50;;;-1.50;99.90;-2.70;99804.00;;;;5013259;27;100045;-68
2021/12/03 05:04:59;;;;;;;8.43;4.17;;;-2.30;99.90;-2.60;99809.00;;;;5015779;27;101751;-66
2021/12/03 05:09:54;;;;;;;7.20;4.20;;;-2.30;99.90;-2.60;99831.00;;;;5012528;27;88167;-65
2021/12/03 05:12:20;;;;;;;5.80;3.93;;;-2.30;99.90;-2.60;99832.00;;;;5015608;27;88569;-66
2021/12/03 05:14:45;;;;;;;11.97;5.53;;;-2.30;99.90;-2.60;99827.00;;;;5015880;27;87499;-66
2021/12/03 05:17:11;;;;;;;8.17;4.93;;;-2.20;99.90;-2.60;99829.00;;;;5017238;27;109473;-67
2021/12/03 05:19:37;;;;;;;6.17;4.13;;;-2.20;99.90;-2.60;99826.00;;;;5017918;27;118506;-68
2021/12/03 05:22:03;;;;;;;8.90;4.23;;;-2.20;99.90;-2.60;99837.00;;;;5018199;27;117438;-66
2021/12/03 05:24:29;;;;;;;6.03;3.57;;;-2.20;99.90;-2.60;99833.00;;;;5018563;27;88717;-65
2021/12/03 05:26:55;;;;;;;4.80;3.60;;;-0.70;99.90;-2.60;99827.00;;;;5019384;27;87822;-66
2021/12/03 05:29:21;;;;;;;5.63;3.93;;;-2.10;99.90;-2.50;99845.00;;;;4998452;27;89465;-66
2021/12/03 05:31:47;;;;;;;11.00;4.10;;;-2.20;99.90;-2.50;99858.00;;;;4998274;28;87807;-67
2021/12/03 05:34:15;;;;;;;4.80;3.07;;;-2.20;99.90;-2.50;99853.00;;;;4996726;27;88215;-67
2021/12/03 05:36:42;;;;;;;6.73;4.03;;;-2.10;99.90;-2.40;99848.00;;;;4999271;27;87648;-66
2021/12/03 05:39:07;;;;;;;7.67;3.70;;;-2.00;99.90;-2.40;99847.00;;;;4998197;28;89319;-67
2021/12/03 05:41:35;;;;;;;6.03;4.00;;;-2.20;99.90;-2.40;99855.00;;;;4998414;28;109711;-65
2021/12/03 05:44:02;;;;;;;5.27;3.97;;;-1.40;99.90;-2.40;99851.00;;;;4998935;28;88045;-66
2021/12/03 05:46:28;;;;;;;7.43;4.00;;;-1.10;99.90;-2.30;99863.00;;;;5001694;27;87921;-65
2021/12/03 05:48:54;;;;;;;6.47;4.43;;;-1.90;99.90;-2.30;99861.00;;;;5017851;27;94213;-65
2021/12/03 05:51:19;;;;;;;6.23;4.53;;;-2.00;99.90;-2.20;99850.00;;;;5018638;27;88712;-67
2021/12/03 05:53:45;;;;;;;5.20;3.97;;;-1.90;99.90;-2.20;99862.00;;;;5019268;27;87909;-63
2021/12/03 05:56:11;;;;;;;5.17;3.80;;;-1.90;99.90;-2.20;99867.00;;;;5004620;27;109228;-65
2021/12/03 05:58:37;;;;;;;6.30;4.10;;;-1.00;99.90;-2.20;99867.00;;;;4997712;28;108970;-66
2021/12/03 06:01:03;;;;;;;6.80;4.33;;;-2.40;99.90;-2.20;99850.00;;;;4998636;28;88053;-66
2021/12/03 06:03:29;;;;;;;6.90;4.43;;;-0.60;99.90;-2.10;99870.00;;;;4999948;27;87867;-65
2021/12/03 06:05:55;;;;;;;6.83;3.60;;;-1.80;99.90;-2.10;99865.00;;;;4998656;28;86784;-66
2021/12/03 06:08:21;;;;;;;10.27;4.20;;;-1.70;99.90;-2.10;99868.00;;;;4998336;28;88324;-66
2021/12/03 06:10:47;;;;;;;6.03;4.43;;;-1.80;99.90;-2.10;99878.00;;;;4997943;28;87855;-66
2021/12/03 06:13:13;;;;;;;5.10;3.60;;;-1.80;99.90;-2.10;99877.00;;;;4997484;28;110237;-64
2021/12/03 06:15:38;;;;;;;7.13;4.63;;;-1.10;99.90;-2.10;99886.00;;;;4998106;28;94078;-65
2021/12/03 06:18:04;;;;;;;4.80;3.53;;;-1.80;99.90;-2.10;99880.00;;;;4995933;28;88425;-66
2021/12/03 06:20:30;;;;;;;6.90;4.10;;;-3.20;99.90;-2.10;99882.00;;;;4998389;28;88860;-66
2021/12/03 06:22:56;;;;;;;7.30;4.13;;;-1.70;99.90;-2.10;99887.00;;;;5003578;27;87597;-65
2021/12/03 06:25:23;;;;;;;4.83;3.17;;;-1.60;99.90;-2.10;99888.00;;;;5018021;27;109189;-66
2021/12/03 06:27:49;;;;;;;5.20;3.83;;;-1.70;99.90;-2.10;99881.00;;;;5016318;27;117513;-65
2021/12/03 06:30:19;;;;;;;7.93;4.10;;;-1.80;99.90;-2.10;99887.00;;;;5018678;27;87946;-64
2021/12/03 06:32:46;;;;;;;8.43;3.87;;;-1.10;99.90;-2.00;99887.00;;;;5018034;27;87665;-66
2021/12/03 06:35:14;;;;;;;4.97;3.03;;;-1.70;99.90;-2.10;99897.00;;;;5017870;27;92995;-65
2021/12/03 06:37:40;;;;;;;5.97;3.47;;;-1.70;99.90;-2.00;99909.00;;;;5015822;27;93269;-66
2021/12/03 06:40:11;;;;;;;4.50;3.30;;;-1.70;99.90;-2.00;99907.00;;;;5017808;27;96514;-66
2021/12/03 06:42:37;;;;;;;5.23;3.17;;;-1.60;99.90;-2.00;99900.00;;;;5017061;27;87763;-64
2021/12/03 06:45:06;;;;;;;4.20;2.97;;;-1.50;99.90;-2.00;99928.00;;;;5017963;27;87975;-65
2021/12/03 06:47:33;;;;;;;4.77;3.30;;;-1.60;99.90;-2.00;99910.00;;;;5017569;27;88040;-67
2021/12/03 06:49:59;;;;;;;5.07;3.63;;;-1.50;99.90;-2.00;99912.00;;;;5015478;27;87959;-65
2021/12/03 06:52:25;;;;;;;7.47;3.47;;;-1.70;99.90;-2.00;99916.00;;;;4998038;27;87653;-64
2021/12/03 06:55:03;;;;;;;4.53;2.97;;;-1.70;99.90;-2.00;99917.00;;;;4998490;28;87200;-68
2021/12/03 06:57:29;;;;;;;3.33;2.60;;;-1.70;99.90;-2.00;99910.00;;;;4997687;28;88070;-65
2021/12/03 06:59:55;;;;;;;5.03;2.63;;;-1.70;99.90;-2.00;99924.00;;;;4997595;28;89176;-67
2021/12/03 07:02:21;;;;;;;4.60;3.17;;;-1.70;99.90;-2.00;99920.00;;;;4995259;28;88530;-68
2021/12/03 07:04:47;;;;;;;6.20;3.13;;;-1.60;99.90;-2.00;99928.00;;;;4997849;28;87953;-65
2021/12/03 07:07:12;;;;;;;7.83;2.83;;;-1.50;99.90;-1.90;99940.00;;;;4995822;28;118936;-65
2021/12/03 07:09:38;;;;;;;6.60;4.07;;;-1.60;99.90;-1.90;99932.00;;;;4995964;28;117339;-67
2021/12/03 07:12:04;;;;;;;9.70;2.93;;;-1.60;99.90;-1.90;99930.00;;;;4996840;28;92542;-67
2021/12/03 07:14:30;;;;;;;5.83;2.97;;;-1.60;99.90;-1.80;99930.00;;;;4997590;28;87721;-66
2021/12/03 07:16:58;;;;;;;4.50;3.23;;;-1.50;99.90;-1.80;99944.00;;;;4995689;28;118969;-66
2021/12/03 07:19:24;;;;;;;3.67;2.40;;;-1.40;99.90;-1.70;99937.00;;;;4996836;27;87933;-65
2021/12/03 07:21:50;;;;;;;5.73;2.83;;;-0.60;99.90;-1.50;99945.00;;;;4992943;27;110254;-66
2021/12/03 07:24:16;;;;;;;8.27;2.70;;;-1.20;99.90;-1.40;99936.00;;;;4993795;27;88063;-64
2021/12/03 07:26:41;;;;;;;3.57;2.57;;;-1.10;99.90;-1.30;99948.00;;;;4993175;27;106283;-65
2021/12/03 07:29:07;;;;;;;6.27;2.63;;;-1.00;99.90;-1.10;99943.00;;;;4993261;27;96195;-66
2021/12/03 07:31:33;;;;;;;4.17;2.67;;;0.00;99.90;-1.00;99936.00;;;;4997540;27;110150;-64
2021/12/03 07:33:58;;;;;;;3.20;2.57;;;-0.70;99.90;-0.90;99939.00;;;;4992933;27;98171;-66
2021/12/03 07:36:24;;;;;;;3.07;2.60;;;-0.10;99.90;-0.80;99941.00;;;;4994003;27;88099;-65
2021/12/03 07:38:50;;;;;;;3.77;2.87;;;-0.50;99.90;-0.70;99939.00;;;;4993350;27;88567;-65
2021/12/03 07:41:16;;;;;;;4.27;3.00;;;-0.40;99.90;-0.60;99938.00;;;;4992962;27;87736;-65
2021/12/03 07:43:42;;;;;;;5.63;2.70;;;-0.30;99.90;-0.50;99951.00;;;;4992602;27;110055;-64
2021/12/03 07:46:07;;;;;;;3.10;2.07;;;-0.30;99.90;-0.40;99954.00;;;;4996955;27;117363;-66
2021/12/03 07:48:33;;;;;;;5.17;2.80;;;-0.20;99.90;-0.30;99957.00;;;;4993480;27;87881;-66
2021/12/03 07:50:59;;;;;;;11.20;2.97;;;-0.10;99.90;-0.30;99951.00;;;;4992809;27;88668;-66
2021/12/03 07:53:25;;;;;;;3.57;2.20;;;0.00;99.90;-0.20;99962.00;;;;4992506;27;108904;-67
2021/12/03 07:55:52;;;;;;;4.03;2.13;;;0.10;99.90;-0.10;99959.00;;;;4993552;27;88265;-67
2021/12/03 07:58:19;;;;;;;2.50;2.30;;;0.20;99.90;0.00;99966.00;;;;4993093;27;88928;-67
2021/12/03 08:00:46;;;;;;;2.83;2.37;;;0.30;99.90;0.20;99964.00;;;;4993926;27;87796;-67
2021/12/03 08:03:12;;;;;;;3.17;2.37;;;0.50;99.90;0.30;99977.00;;;;4995312;27;87747;-69
2021/12/03 08:05:39;;;;;;;3.17;1.83;;;0.50;99.90;0.30;99967.00;;;;4991767;27;88593;-66
2021/12/03 08:08:06;;;;;;;4.23;2.50;;;0.60;99.90;0.50;99969.00;;;;4993922;27;88107;-68
2021/12/03 08:10:34;;;;;;;4.53;2.47;;;0.80;99.90;0.60;99971.00;;;;4993125;27;87991;-67
2021/12/03 08:13:00;;;;;;;6.43;2.30;;;0.90;99.90;0.80;99991.00;;;;4991074;27;87733;-68
2021/12/03 08:15:26;;;;;;;1.80;1.57;;;1.00;99.90;1.00;99988.00;;;;4994711;27;89082;-66
2021/12/03 08:17:52;;;;;;;2.27;1.60;;;1.20;99.90;1.10;99990.00;;;;4991675;27;117664;-66
2021/12/03 08:20:19;;;;;;;3.50;1.77;;;1.40;99.90;1.30;99988.00;;;;4992745;27;87672;-67
2021/12/03 08:22:45;;;;;;;2.07;1.63;;;1.50;99.90;1.40;99999.00;;;;4993541;27;88045;-66
2021/12/03 08:25:12;;;;;;;3.50;1.90;;;1.60;99.90;1.40;99987.00;;;;4993525;27;88373;-69
2021/12/03 08:27:39;;;;;;;2.87;1.03;;;1.80;99.90;1.60;99985.00;;;;4992096;27;116829;-65
2021/12/03 08:30:09;;;;;;;1.63;1.33;;;1.80;99.90;1.70;99995.00;;;;4994434;27;87945;-65
2021/12/03 08:32:35;;;;;;;2.63;2.10;;;2.00;99.90;1.90;99991.00;;;;4993101;27;86948;-67
2021/12/03 08:35:01;;;;;;;1.70;1.50;;;2.30;99.90;2.00;99998.00;;;;4992504;27;88800;-67
2021/12/03 08:37:26;;;;;;;4.33;1.90;;;2.90;99.90;2.10;99993.00;;;;4993217;27;88166;-67
2021/12/03 08:39:52;;;;;;;3.53;1.93;;;2.30;99.90;2.20;99996.00;;;;4993112;27;89507;-66
2021/12/03 08:42:18;;;;;;;4.53;1.20;;;3.20;99.90;2.30;99979.00;;;;4992800;27;109189;-65
2021/12/03 08:44:45;;;;;;;4.07;1.83;;;2.60;99.90;2.40;99988.00;;;;4992768;27;88267;-68
2021/12/03 08:47:11;;;;;;;3.53;1.63;;;2.60;99.90;2.50;99984.00;;;;4992466;27;88961;-65
2021/12/03 08:49:48;;;;;;;4.27;1.77;;;2.70;99.90;2.60;99996.00;;;;4993216;27;87598;-66
2021/12/03 08:52:27;;;;;;;3.13;1.77;;;2.90;99.90;2.70;99990.00;;;;4994236;27;88173;-65
2021/12/03 08:54:55;;;;;;;3.40;1.77;;;2.90;99.90;2.80;99992.00;;;;5002288;27;88061;-66
2021/12/03 08:57:33;;;;;;;1.83;1.63;;;3.10;99.90;2.90;99992.00;;;;4997349;27;87818;-67
2021/12/03 09:00:13;;;;;;;1.83;1.73;;;3.10;99.90;3.10;99998.00;;;;4996540;27;87780;-66
2021/12/03 09:02:41;;;;;;;3.40;1.53;;;3.30;99.90;3.10;100010.00;;;;4994208;27;87629;-64
2021/12/03 09:05:07;;;;;;;2.77;1.73;;;3.30;98.70;3.10;100006.00;;;;4995770;27;89939;-64
2021/12/03 09:07:33;;;;;;;1.80;1.30;;;3.30;98.60;3.00;100012.00;;;;4996262;27;88135;-66
2021/12/03 09:09:59;;;;;;;1.13;1.00;;;3.30;98.80;3.10;100001.00;;;;4996833;27;87976;-64
2021/12/03 09:12:25;;;;;;;3.63;1.87;;;3.40;97.90;3.20;100016.00;;;;4994728;27;87761;-67
2021/12/03 09:14:57;;;;;;;3.00;1.40;;;3.40;98.40;3.20;100024.00;;;;4995961;27;117505;-64
2021/12/03 09:20:32;;;;;;;3.67;2.10;;;3.40;96.70;3.30;100021.00;;;;4996364;27;87913;-66
2021/12/03 09:23:01;;;;;;;1.60;1.30;;;3.60;97.00;3.30;100012.00;;;;4996666;27;88074;-64
2021/12/03 09:25:41;;;;;;;1.67;1.17;;;3.60;96.90;3.40;100016.00;;;;4996112;27;88545;-64
2021/12/03 09:28:12;;;;;;;2.13;1.20;;;3.70;97.30;3.50;100013.00;;;;4994225;27;88315;-66
2021/12/03 09:30:41;;;;;;;2.63;1.33;;;3.70;95.70;3.60;100019.00;;;;4995771;27;88951;-67
2021/12/03 09:33:11;;;;;;;5.53;1.90;;;3.70;96.10;3.70;100016.00;;;;4996442;27;87933;-65
2021/12/03 09:35:50;;;;;;;1.50;1.20;;;3.90;95.90;3.90;100021.00;;;;4996263;27;87567;-65
2021/12/03 09:38:16;;;;;;;2.03;1.67;;;4.40;95.40;3.90;100018.00;;;;5002346;27;87941;-66
2021/12/03 09:40:42;;;;;;;1.13;1.03;;;4.20;94.80;4.00;100012.00;;;;4995908;27;87823;-65
2021/12/03 09:43:08;;;;;;;2.70;1.43;;;4.20;93.60;4.10;100000.00;;;;4995498;27;87843;-65
2021/12/03 09:45:36;;;;;;;1.23;1.13;;;4.30;93.30;4.20;99996.00;;;;4995924;27;88553;-64
2021/12/03 09:48:28;;;;;;;4.23;1.37;;;4.40;93.00;4.30;99998.00;;;;4993512;27;87086;-65
2021/12/03 09:50:54;;;;;;;3.73;1.60;;;4.40;93.30;4.40;99999.00;;;;4995512;27;87710;-66
2021/12/03 09:53:38;;;;;;;2.20;1.03;;;4.60;92.40;4.40;100005.00;;;;4998847;27;108743;-67
2021/12/03 09:56:04;;;;;;;1.50;0.97;;;4.60;92.30;4.50;99983.00;;;;4995294;27;89910;-67
2021/12/03 09:58:54;;;;;;;4.90;1.20;;;4.70;90.10;4.60;100002.00;;;;4995253;27;89666;-66
2021/12/03 10:01:28;;;;;;;1.67;1.30;;;4.80;89.60;4.60;99996.00;;;;4995532;27;88182;-63
2021/12/03 10:04:19;;;;;;;1.33;1.00;;;4.80;90.00;4.60;99999.00;;;;4994363;27;87831;-65
2021/12/03 10:10:15;;;;;;;1.10;0.70;;;4.90;89.40;4.90;99980.00;;;;4953203;28;87772;-66
2021/12/03 10:15:14;;;;;;;1.77;0.97;;;5.00;82.40;4.90;99987.00;;;;4976005;28;86995;-65
2021/12/03 10:17:44;;;;;;;1.37;0.90;;;5.10;80.40;4.90;99989.00;;;;4973674;28;88048;-65
2021/12/03 10:39:12;;;;;;;1.13;0.70;;;5.50;75.60;5.30;99980.00;;;;4973543;28;87777;-65
2021/12/03 10:45:16;;;;;;;1.17;0.90;;;5.40;74.00;5.40;99986.00;;;;4972425;28;87769;-66
2021/12/03 10:50:42;;;;;;;2.20;0.90;;;5.60;74.40;5.60;99992.00;;;;4970810;28;89417;-66
2021/12/03 11:18:03;;;;;;;1.47;1.00;;;5.80;69.70;5.50;99980.00;;;;4992658;27;88897;-67
2021/12/03 11:21:24;;;;;;;1.13;0.97;;;5.60;69.50;5.50;99987.00;;;;4994527;27;87728;-66
2021/12/03 11:34:49;;;;;;;1.17;0.73;;;6.00;67.60;5.40;99979.00;;;;4991755;27;88050;-67
2021/12/03 11:43:15;;;;;;;0.83;0.70;;;5.70;67.70;5.70;99976.00;;;;4992238;27;87558;-66
2021/12/03 11:46:47;;;;;;;1.70;1.17;;;5.80;66.40;5.70;99986.00;;;;4992453;27;88723;-67
2021/12/03 11:49:51;;;;;;;3.77;1.03;;;5.80;65.70;5.70;99978.00;;;;4986781;27;89051;-66
2021/12/03 12:15:21;;;;;;;3.60;1.20;;;5.00;68.70;4.80;99977.00;;;;4992877;27;88930;-66
2021/12/03 12:47:30;;;;;;;2.63;1.57;;;4.10;79.20;3.90;99974.00;;;;4992069;27;88824;-67
2021/12/03 13:00:50;;;;;;;2.63;2.07;;;4.50;82.90;3.70;99961.00;;;;4989473;27;88993;-65
2021/12/03 14:04:37;;;;;;;4.17;2.13;;;3.70;87.40;3.40;99948.00;;;;4993162;27;87832;-67
2021/12/03 14:07:11;;;;;;;2.37;1.50;;;3.60;88.50;3.20;99942.00;;;;4994907;27;89244;-67
2021/12/03 14:33:06;;;;;;;2.70;1.90;;;2.50;92.50;2.20;99940.00;;;;4990882;27;87932;-65
2021/12/03 14:37:37;;;;;;;3.93;2.57;;;2.40;93.20;2.10;99953.00;;;;4991963;27;88977;-65
2021/12/03 14:40:21;;;;;;;4.00;2.27;;;2.30;93.90;2.00;99950.00;;;;4995085;27;87835;-67
2021/12/03 14:51:43;;;;;;;4.80;2.33;;;2.20;94.60;1.90;99953.00;;;;4991081;27;87739;-65
2021/12/03 14:54:45;;;;;;;3.20;2.10;;;2.20;95.10;1.90;99944.00;;;;4994442;27;87265;-65
2021/12/03 14:57:19;;;;;;;2.73;2.30;;;2.20;95.90;1.90;99954.00;;;;5001839;27;87581;-66
2021/12/03 15:00:26;;;;;;;6.17;2.20;;;2.20;95.80;2.00;99951.00;;;;4994375;27;88885;-66